East Lynn, Massachusetts
Current Conditions -  °F | °C
As of 7:53 AM on Wednesday 22 Oct 2014 (Local Time) from KBVY Reporting Station
Overcast Overcast  
Wind Chill: 55°   Ceiling: 700
Heat Index: 55°   Visibility: 10mi
Dew Point: 52°   Wind: 16mph
Humidity: 89%   Direction: 50°NE
Pressure: 30.01"   Gusts: 32mph
Location:  42.4911°N, 70.9658°W
Report Text: KBVY 221153Z 05014G28KT 10SM OVC007 13/11 A3001 RMK AO2 PK WND 05031/1143 RAE21 SLP157 P0000 60001 70001 T01280111 10133 20100 53011
Loading
Personal Weather Stations






























Interactive Weather Map
Tropical Storm Tracking
New forecast layout! Learn more

10-Day Weather Forecast

Advertisements
Track Severe Weather on mobile